Time;durP1;ratioP1;P1;durP2;ratioP2;P2;SDS_P1;SDS_P2;PMS_P1;PMS_P2;Temp;Humidity;BMP_temperature;BMP_pressure;BME280_temperature;BME280_humidity;BME280_pressure;Samples;Min_cycle;Max_cycle;Signal;HPM_P1;HPM_P2
2024/01/04 00:01:11;;;;;;;89.70;43.53;;;8.40;99.90;;;;;;6245367;23;20004;-69
2024/01/04 00:03:37;;;;;;;81.13;42.33;;;8.40;99.90;;;;;;6213644;23;20038;-68
2024/01/04 00:06:03;;;;;;;87.83;44.33;;;8.40;99.90;;;;;;6237887;23;20011;-69
2024/01/04 00:08:29;;;;;;;79.40;42.70;;;8.40;99.90;;;;;;6240307;23;20004;-68
2024/01/04 00:10:54;;;;;;;81.80;42.23;;;8.40;99.90;;;;;;6244334;23;20363;-68
2024/01/04 00:13:20;;;;;;;75.27;41.43;;;8.40;99.90;;;;;;6245406;23;20326;-68
2024/01/04 00:15:46;;;;;;;76.53;41.33;;;8.40;99.90;;;;;;6244844;23;20020;-69
2024/01/04 00:18:11;;;;;;;71.27;40.23;;;8.30;99.90;;;;;;6245525;23;19997;-68
2024/01/04 00:20:37;;;;;;;73.73;42.40;;;8.40;99.90;;;;;;6246620;23;20004;-68
2024/01/04 00:23:03;;;;;;;64.07;40.37;;;8.40;99.90;;;;;;6247388;23;20000;-67
2024/01/04 00:25:29;;;;;;;72.10;38.90;;;8.40;99.90;;;;;;6247198;23;20426;-68
2024/01/04 00:27:54;;;;;;;71.17;42.13;;;8.40;99.90;;;;;;6247089;23;20414;-67
2024/01/04 00:30:20;;;;;;;66.90;40.73;;;8.30;99.90;;;;;;6245657;23;20319;-68
2024/01/04 00:32:45;;;;;;;75.80;42.40;;;8.30;99.90;;;;;;6246347;23;20075;-68
2024/01/04 00:35:11;;;;;;;75.73;41.67;;;8.30;99.90;;;;;;6247116;23;20015;-68
2024/01/04 00:37:37;;;;;;;80.47;43.43;;;8.30;99.90;;;;;;6246859;23;20000;-68
2024/01/04 00:40:03;;;;;;;74.67;42.93;;;8.20;99.90;;;;;;6246431;23;20000;-68
2024/01/04 00:42:28;;;;;;;78.20;42.80;;;8.20;99.90;;;;;;6246937;23;20047;-68
2024/01/04 00:44:54;;;;;;;74.30;42.57;;;8.20;99.90;;;;;;6246699;23;20012;-68
2024/01/04 00:47:20;;;;;;;74.10;43.47;;;8.20;99.90;;;;;;6220337;23;20004;-68
2024/01/04 00:49:45;;;;;;;82.90;43.93;;;8.20;99.90;;;;;;6246095;23;20004;-68
2024/01/04 00:52:11;;;;;;;78.67;44.20;;;8.30;99.90;;;;;;6245435;23;20327;-68
2024/01/04 00:54:37;;;;;;;79.70;43.87;;;8.30;99.90;;;;;;6244849;23;20043;-68
2024/01/04 00:57:03;;;;;;;69.37;40.53;;;8.30;99.90;;;;;;6244464;23;19999;-66
2024/01/04 00:59:28;;;;;;;75.77;42.13;;;8.30;99.90;;;;;;6244536;23;20012;-68
2024/01/04 01:01:54;;;;;;;84.37;42.90;;;8.30;99.90;;;;;;6243953;23;20031;-68
2024/01/04 01:04:19;;;;;;;75.03;43.07;;;8.30;99.90;;;;;;6244975;23;20007;-68
2024/01/04 01:06:45;;;;;;;78.70;43.67;;;8.40;99.90;;;;;;6245058;23;20434;-66
2024/01/04 01:09:11;;;;;;;70.83;38.93;;;8.40;99.90;;;;;;6244955;23;20020;-68
2024/01/04 01:11:37;;;;;;;73.37;39.53;;;8.40;99.90;;;;;;6244223;23;20007;-68
2024/01/04 01:14:03;;;;;;;78.23;40.90;;;8.40;99.90;;;;;;6244452;23;20012;-68
2024/01/04 01:16:28;;;;;;;71.90;41.13;;;8.50;99.90;;;;;;6245134;23;20000;-68
2024/01/04 01:18:54;;;;;;;74.20;39.87;;;8.60;99.90;;;;;;6244938;23;20028;-68
2024/01/04 01:21:20;;;;;;;70.00;39.43;;;8.60;99.90;;;;;;6244716;23;20000;-68
2024/01/04 01:23:45;;;;;;;68.47;37.83;;;8.60;99.90;;;;;;6243708;23;20339;-68
2024/01/04 01:26:11;;;;;;;70.07;37.10;;;8.60;99.90;;;;;;6243689;23;20000;-68
2024/01/04 01:28:36;;;;;;;72.07;39.40;;;8.60;99.90;;;;;;6244248;23;20011;-68
2024/01/04 01:31:02;;;;;;;79.07;40.17;;;8.60;99.90;;;;;;6243939;23;20493;-68
2024/01/04 01:33:28;;;;;;;77.00;40.17;;;8.50;99.90;;;;;;6244768;23;20373;-68
2024/01/04 01:35:54;;;;;;;84.87;41.57;;;8.50;99.90;;;;;;6244636;23;20012;-68
2024/01/04 01:38:19;;;;;;;88.10;42.47;;;8.50;99.90;;;;;;6244613;23;20331;-68
2024/01/04 01:40:45;;;;;;;91.67;44.50;;;8.40;99.90;;;;;;6243345;23;20031;-68
2024/01/04 01:43:14;;;;;;;104.40;44.27;;;8.40;99.90;;;;;;6244232;23;20003;-68
2024/01/04 01:45:39;;;;;;;123.77;47.73;;;8.40;99.90;;;;;;6244816;23;20000;-68
2024/01/04 01:48:06;;;;;;;117.13;48.10;;;8.40;99.90;;;;;;6245318;23;20014;-68
2024/01/04 01:50:32;;;;;;;122.53;48.77;;;8.40;99.90;;;;;;6243439;23;20000;-68
2024/01/04 01:52:58;;;;;;;133.83;49.87;;;8.40;99.90;;;;;;6243017;23;20114;-68
2024/01/04 01:55:25;;;;;;;133.27;50.40;;;8.40;99.90;;;;;;6194203;23;1174918;-68
2024/01/04 01:57:51;;;;;;;133.47;52.23;;;8.40;99.90;;;;;;6244772;23;20004;-68
2024/01/04 02:00:18;;;;;;;139.83;53.10;;;8.40;99.90;;;;;;6242789;23;20342;-68
2024/01/04 02:02:48;;;;;;;119.40;49.77;;;8.40;99.90;;;;;;6243006;23;20027;-67
2024/01/04 02:05:14;;;;;;;135.67;52.50;;;8.40;99.90;;;;;;6243637;23;20011;-68
2024/01/04 02:07:40;;;;;;;130.13;49.63;;;8.40;99.90;;;;;;6244106;23;20041;-69
2024/01/04 02:10:07;;;;;;;127.43;51.00;;;8.40;99.90;;;;;;6244034;23;19996;-68
2024/01/04 02:12:32;;;;;;;122.67;49.57;;;8.40;99.90;;;;;;6244828;23;20038;-67
2024/01/04 02:14:58;;;;;;;133.13;52.00;;;8.50;99.90;;;;;;6244564;23;20008;-68
2024/01/04 02:17:28;;;;;;;129.07;51.40;;;8.50;99.90;;;;;;6245659;23;20004;-67
2024/01/04 02:19:56;;;;;;;138.70;50.60;;;8.50;99.90;;;;;;6245328;23;20011;-68
2024/01/04 02:22:21;;;;;;;166.80;54.63;;;8.50;99.90;;;;;;6244285;23;20045;-68
2024/01/04 02:24:47;;;;;;;171.43;55.60;;;8.40;99.90;;;;;;6244371;23;20009;-68
2024/01/04 02:27:13;;;;;;;165.27;55.43;;;8.40;99.90;;;;;;6243634;23;20011;-68
2024/01/04 02:29:39;;;;;;;173.57;56.23;;;8.40;99.90;;;;;;6244380;23;20010;-68
2024/01/04 02:32:05;;;;;;;191.37;61.30;;;8.40;99.90;;;;;;6245831;23;20032;-68
2024/01/04 02:34:32;;;;;;;195.93;59.60;;;8.40;99.90;;;;;;6244995;23;20066;-68
2024/01/04 02:36:58;;;;;;;187.10;59.37;;;8.40;99.90;;;;;;6242094;23;20004;-68
2024/01/04 02:39:23;;;;;;;187.47;60.87;;;8.40;99.90;;;;;;6242090;23;20463;-68
2024/01/04 02:41:49;;;;;;;183.43;61.43;;;8.40;99.90;;;;;;6215936;23;20008;-68
2024/01/04 02:44:15;;;;;;;189.83;60.57;;;8.40;99.90;;;;;;6245051;23;20036;-67
2024/01/04 02:46:40;;;;;;;187.07;59.87;;;8.40;99.90;;;;;;6245563;23;20328;-68
2024/01/04 02:49:06;;;;;;;190.40;62.10;;;8.40;99.90;;;;;;6245510;23;20377;-67
2024/01/04 02:51:32;;;;;;;185.57;60.27;;;8.40;99.90;;;;;;6242129;23;20027;-68
2024/01/04 02:53:58;;;;;;;188.97;60.03;;;8.40;99.90;;;;;;6245279;23;20016;-68
2024/01/04 02:56:24;;;;;;;186.60;60.43;;;8.40;99.90;;;;;;6245804;23;20016;-68
2024/01/04 02:58:50;;;;;;;191.30;63.53;;;8.40;99.90;;;;;;6245341;23;20053;-68
2024/01/04 03:01:22;;;;;;;176.63;57.87;;;8.40;99.90;;;;;;6245881;23;20008;-68
2024/01/04 03:03:51;;;;;;;162.27;56.28;;;8.40;99.90;;;;;;6245784;23;20000;-68
2024/01/04 03:06:22;;;;;;;177.97;56.27;;;8.40;99.90;;;;;;6244405;23;20413;-68
2024/01/04 03:08:48;;;;;;;157.60;54.50;;;8.40;99.90;;;;;;6242174;23;20000;-68
2024/01/04 03:11:13;;;;;;;173.47;54.80;;;8.40;99.90;;;;;;6242809;23;20026;-68
2024/01/04 03:13:39;;;;;;;163.23;55.40;;;8.40;99.90;;;;;;6242249;23;20000;-68
2024/01/04 03:16:05;;;;;;;166.47;56.50;;;8.40;99.90;;;;;;6242135;23;20012;-69
2024/01/04 03:18:31;;;;;;;171.67;55.80;;;8.40;99.90;;;;;;6242526;23;20007;-68
2024/01/04 03:20:56;;;;;;;156.87;54.00;;;8.40;99.90;;;;;;6245036;23;20504;-68
2024/01/04 03:23:22;;;;;;;162.80;55.60;;;8.40;99.90;;;;;;6243244;23;20079;-68
2024/01/04 03:25:48;;;;;;;172.43;57.33;;;8.40;99.90;;;;;;6243748;23;20480;-67
2024/01/04 03:28:13;;;;;;;159.73;55.40;;;8.50;99.90;;;;;;6245616;23;20000;-68
2024/01/04 03:30:39;;;;;;;153.53;55.40;;;8.50;99.90;;;;;;6242359;23;20020;-67
2024/01/04 03:33:05;;;;;;;161.07;52.17;;;8.50;99.90;;;;;;6245412;23;20031;-68
2024/01/04 03:35:30;;;;;;;165.83;54.07;;;8.50;99.90;;;;;;6242502;23;20008;-67
2024/01/04 03:37:56;;;;;;;165.90;54.43;;;8.50;99.90;;;;;;6242305;23;20012;-67
2024/01/04 03:40:22;;;;;;;158.43;54.87;;;8.50;99.90;;;;;;6243706;23;20168;-67
2024/01/04 03:42:47;;;;;;;160.17;55.43;;;8.50;99.90;;;;;;6242427;23;20426;-67
2024/01/04 03:45:13;;;;;;;147.00;52.43;;;8.50;99.90;;;;;;6244125;23;20079;-68
2024/01/04 03:47:39;;;;;;;147.57;51.07;;;8.50;99.90;;;;;;6243248;23;20001;-68
2024/01/04 03:50:05;;;;;;;150.57;53.13;;;8.50;99.90;;;;;;6244256;23;20063;-68
2024/01/04 03:52:31;;;;;;;150.93;53.27;;;8.50;99.90;;;;;;6244355;23;20465;-68
2024/01/04 03:54:57;;;;;;;155.40;54.40;;;8.50;99.90;;;;;;6246367;23;20020;-68
2024/01/04 03:57:22;;;;;;;142.67;52.83;;;8.50;99.90;;;;;;6246032;23;20391;-67
2024/01/04 03:59:48;;;;;;;143.30;53.23;;;8.50;99.90;;;;;;6247264;23;20012;-68
2024/01/04 04:02:14;;;;;;;139.83;52.37;;;8.50;99.90;;;;;;6247475;23;20067;-68
2024/01/04 04:04:39;;;;;;;140.97;52.10;;;8.50;99.90;;;;;;6247253;23;20092;-67
2024/01/04 04:07:05;;;;;;;149.07;54.13;;;8.50;99.90;;;;;;6246672;23;19996;-67
2024/01/04 04:09:31;;;;;;;144.63;50.83;;;8.50;99.90;;;;;;6247395;23;20004;-67
2024/01/04 04:11:56;;;;;;;138.33;52.10;;;8.60;99.90;;;;;;6247439;23;20007;-68
2024/01/04 04:14:22;;;;;;;137.00;52.13;;;8.50;99.90;;;;;;6245715;23;20012;-67
2024/01/04 04:16:47;;;;;;;129.83;51.03;;;8.60;99.90;;;;;;6245697;23;20496;-68
2024/01/04 04:19:14;;;;;;;122.37;50.93;;;8.60;99.90;;;;;;6246355;23;20034;-68
2024/01/04 04:21:40;;;;;;;116.80;48.47;;;8.60;99.90;;;;;;6245938;23;20001;-67
2024/01/04 04:24:06;;;;;;;135.23;51.63;;;8.50;99.90;;;;;;6246501;23;20019;-68
2024/01/04 04:26:32;;;;;;;145.90;51.63;;;8.50;99.90;;;;;;6245209;23;20026;-68
2024/01/04 04:28:58;;;;;;;144.43;52.80;;;8.50;99.90;;;;;;6244997;23;20008;-67
2024/01/04 04:31:24;;;;;;;146.03;55.10;;;8.50;99.90;;;;;;6246289;23;19997;-67
2024/01/04 04:33:49;;;;;;;165.07;57.13;;;8.50;99.90;;;;;;6246250;23;20542;-67
2024/01/04 04:36:15;;;;;;;168.70;56.63;;;8.40;99.90;;;;;;6244961;23;20001;-67
2024/01/04 04:38:41;;;;;;;166.17;56.60;;;8.40;99.90;;;;;;6245716;23;20007;-68
2024/01/04 04:41:07;;;;;;;163.83;59.77;;;8.30;99.90;;;;;;6245754;23;20004;-67
2024/01/04 04:43:34;;;;;;;167.77;61.43;;;8.30;99.90;;;;;;6247197;23;20299;-68
2024/01/04 04:46:01;;;;;;;172.63;60.90;;;8.30;99.90;;;;;;6245277;23;20023;-67
2024/01/04 04:48:27;;;;;;;166.23;58.90;;;8.30;99.90;;;;;;6245189;23;20019;-68
2024/01/04 04:50:54;;;;;;;165.87;59.13;;;8.30;99.90;;;;;;6245260;23;20004;-68
2024/01/04 04:53:20;;;;;;;170.67;60.33;;;8.30;99.90;;;;;;6244754;23;20003;-68
2024/01/04 04:55:46;;;;;;;176.73;62.07;;;8.20;99.90;;;;;;6244498;23;20019;-66
2024/01/04 04:58:12;;;;;;;179.83;62.63;;;8.30;99.90;;;;;;6244592;23;20334;-68
2024/01/04 05:00:38;;;;;;;180.83;63.37;;;8.20;99.90;;;;;;6246344;23;19996;-67
2024/01/04 05:03:03;;;;;;;178.93;63.50;;;8.20;99.90;;;;;;6245826;23;20058;-68
2024/01/04 05:05:29;;;;;;;186.47;63.53;;;8.20;99.90;;;;;;6246275;23;20083;-65
2024/01/04 05:07:55;;;;;;;203.50;64.47;;;8.20;99.90;;;;;;6246909;23;20000;-67
2024/01/04 05:10:21;;;;;;;197.80;66.53;;;8.20;99.90;;;;;;6246314;23;20091;-68
2024/01/04 05:12:48;;;;;;;187.50;61.20;;;8.20;99.90;;;;;;6246588;23;20032;-67
2024/01/04 05:15:13;;;;;;;169.60;62.10;;;8.20;99.90;;;;;;6244712;23;20012;-67
2024/01/04 05:17:39;;;;;;;141.07;59.07;;;8.20;99.90;;;;;;6246828;23;20005;-67
2024/01/04 05:20:05;;;;;;;128.10;55.67;;;8.20;99.90;;;;;;6244287;23;20011;-67
2024/01/04 05:22:31;;;;;;;121.13;54.20;;;8.20;99.90;;;;;;6246356;23;20000;-67
2024/01/04 05:24:57;;;;;;;104.43;50.10;;;8.10;99.90;;;;;;6243921;23;20074;-68
2024/01/04 05:27:23;;;;;;;102.53;50.87;;;8.10;99.90;;;;;;6245614;23;20067;-68
2024/01/04 05:29:49;;;;;;;95.53;50.37;;;8.00;99.90;;;;;;6244488;23;20083;-68
2024/01/04 05:32:14;;;;;;;90.67;48.40;;;8.10;99.90;;;;;;6243350;23;20458;-68
2024/01/04 05:34:42;;;;;;;96.90;50.53;;;8.10;99.90;;;;;;6245797;23;20015;-67
2024/01/04 05:37:07;;;;;;;104.03;51.47;;;8.00;99.90;;;;;;6246220;23;20000;-67
2024/01/04 05:39:34;;;;;;;90.67;49.97;;;7.90;99.90;;;;;;6246567;23;19996;-67
2024/01/04 05:41:59;;;;;;;95.43;50.50;;;7.90;99.90;;;;;;6244351;23;20035;-68
2024/01/04 05:44:25;;;;;;;95.17;49.13;;;7.90;99.90;;;;;;6245737;23;20015;-67
2024/01/04 05:46:51;;;;;;;89.67;50.20;;;7.90;99.90;;;;;;6243552;23;20103;-68
2024/01/04 05:49:16;;;;;;;93.97;50.37;;;7.90;99.90;;;;;;6245537;23;20035;-67
2024/01/04 05:51:43;;;;;;;88.57;49.40;;;7.90;99.90;;;;;;6245660;23;20370;-68
2024/01/04 05:54:08;;;;;;;90.83;48.50;;;7.90;99.90;;;;;;6244506;23;20074;-68
2024/01/04 05:56:34;;;;;;;87.47;49.50;;;7.90;99.90;;;;;;6245473;23;20095;-68
2024/01/04 05:59:00;;;;;;;88.20;49.13;;;7.90;99.90;;;;;;6246405;23;19996;-68
2024/01/04 06:01:25;;;;;;;90.77;49.50;;;7.80;99.90;;;;;;6246160;23;20331;-68
2024/01/04 06:03:51;;;;;;;88.40;50.27;;;7.80;99.90;;;;;;6245680;23;19996;-68
2024/01/04 06:06:19;;;;;;;94.73;50.93;;;7.80;99.90;;;;;;6244351;23;20003;-68
2024/01/04 06:08:44;;;;;;;87.73;49.77;;;7.80;99.90;;;;;;6244887;23;20308;-68
2024/01/04 06:11:10;;;;;;;86.03;49.53;;;7.80;99.90;;;;;;6244836;23;20100;-67
2024/01/04 06:13:37;;;;;;;88.77;49.83;;;7.80;99.90;;;;;;6246090;23;20028;-68
2024/01/04 06:16:08;;;;;;;91.53;50.23;;;7.80;99.90;;;;;;6244614;23;20426;-68
2024/01/04 06:18:35;;;;;;;89.95;51.80;;;7.80;99.90;;;;;;6245082;23;20071;-67
2024/01/04 06:21:01;;;;;;;81.07;49.83;;;7.80;99.90;;;;;;6245832;23;20359;-68
2024/01/04 06:23:28;;;;;;;91.77;52.20;;;7.80;99.90;;;;;;6245166;23;20075;-68
2024/01/04 06:25:54;;;;;;;90.03;49.80;;;7.80;99.90;;;;;;6245447;23;20270;-68
2024/01/04 06:28:21;;;;;;;92.40;51.73;;;7.80;99.90;;;;;;6244683;23;20315;-67
2024/01/04 06:30:47;;;;;;;93.60;52.13;;;7.80;99.90;;;;;;6245931;23;20082;-68
2024/01/04 06:33:13;;;;;;;92.03;50.10;;;7.70;99.90;;;;;;6245803;23;20004;-67
2024/01/04 06:35:39;;;;;;;87.33;49.97;;;7.70;99.90;;;;;;6218588;23;20016;-68
2024/01/04 06:38:08;;;;;;;94.07;51.37;;;7.80;99.90;;;;;;6244895;23;20003;-68
2024/01/04 06:40:35;;;;;;;89.47;49.33;;;7.80;99.90;;;;;;6245870;23;20099;-67
2024/01/04 06:43:03;;;;;;;92.83;51.50;;;7.80;99.90;;;;;;6244813;23;20011;-68
2024/01/04 06:45:32;;;;;;;84.43;51.13;;;7.80;99.90;;;;;;6244225;23;20003;-68
2024/01/04 06:47:57;;;;;;;86.23;49.03;;;7.80;99.90;;;;;;6245000;23;20007;-67
2024/01/04 06:50:23;;;;;;;87.07;49.67;;;7.80;99.90;;;;;;6245855;23;19997;-67
2024/01/04 06:52:49;;;;;;;82.17;49.87;;;7.80;99.90;;;;;;6245369;23;20004;-68
2024/01/04 06:55:15;;;;;;;89.37;49.03;;;7.80;99.90;;;;;;6244244;23;20087;-68
2024/01/04 06:57:41;;;;;;;85.37;46.80;;;7.80;99.90;;;;;;6244006;23;19996;-68
2024/01/04 07:00:08;;;;;;;89.03;50.30;;;7.80;99.90;;;;;;6245638;23;20015;-67
2024/01/04 07:02:35;;;;;;;89.63;48.80;;;7.70;99.90;;;;;;6244207;23;20046;-67
2024/01/04 07:05:04;;;;;;;87.57;50.33;;;7.70;99.90;;;;;;6245676;23;20346;-67
2024/01/04 07:07:34;;;;;;;85.47;48.47;;;7.70;99.90;;;;;;6245372;23;20106;-67
2024/01/04 07:09:59;;;;;;;87.57;50.90;;;7.70;99.90;;;;;;6245314;23;20029;-67
2024/01/04 07:12:26;;;;;;;90.77;49.73;;;7.70;99.90;;;;;;6245132;23;20008;-68
2024/01/04 07:14:52;;;;;;;86.03;49.30;;;7.70;99.90;;;;;;6245258;23;20054;-67
2024/01/04 07:17:18;;;;;;;90.87;49.87;;;7.70;99.90;;;;;;6244216;23;20000;-68
2024/01/04 07:19:44;;;;;;;92.50;51.13;;;7.70;99.90;;;;;;6245288;23;20453;-67
2024/01/04 07:22:10;;;;;;;89.00;49.20;;;7.70;99.90;;;;;;6245614;23;20003;-67
2024/01/04 07:24:36;;;;;;;90.07;49.57;;;7.80;99.90;;;;;;6245157;23;20000;-67
2024/01/04 07:27:03;;;;;;;90.30;49.27;;;7.80;99.90;;;;;;6245441;23;20004;-66
2024/01/04 07:29:29;;;;;;;90.23;46.53;;;7.80;99.90;;;;;;6245749;23;20414;-67
2024/01/04 07:31:55;;;;;;;85.07;44.97;;;7.80;99.90;;;;;;6245634;23;20046;-67
2024/01/04 07:34:21;;;;;;;86.13;46.20;;;7.80;99.90;;;;;;6245492;23;20008;-68
2024/01/04 07:36:48;;;;;;;81.43;46.50;;;7.90;99.90;;;;;;6218420;23;20008;-68
2024/01/04 07:39:15;;;;;;;83.63;45.27;;;7.90;99.90;;;;;;6244318;23;19996;-67
2024/01/04 07:41:41;;;;;;;80.53;44.97;;;7.90;99.90;;;;;;6244408;23;20032;-67
2024/01/04 07:44:07;;;;;;;78.13;44.93;;;7.90;99.90;;;;;;6245395;23;20078;-66
2024/01/04 07:46:33;;;;;;;85.43;44.43;;;8.00;99.90;;;;;;6245321;23;20010;-67
2024/01/04 07:48:59;;;;;;;82.37;44.83;;;8.00;99.90;;;;;;6244056;23;20024;-68
2024/01/04 07:51:25;;;;;;;80.73;44.43;;;7.90;99.90;;;;;;6244072;23;20092;-68
2024/01/04 07:53:50;;;;;;;87.73;45.40;;;7.90;99.90;;;;;;6236037;23;20080;-67
2024/01/04 07:56:16;;;;;;;90.53;46.23;;;7.90;99.90;;;;;;6214852;23;20013;-67
2024/01/04 07:58:42;;;;;;;83.30;44.00;;;7.90;99.90;;;;;;6186347;23;20004;-68
2024/01/04 08:01:08;;;;;;;81.93;43.77;;;7.90;99.90;;;;;;6212938;23;20000;-68
2024/01/04 08:03:33;;;;;;;85.53;45.20;;;7.90;99.90;;;;;;6213001;23;20003;-68
2024/01/04 08:05:59;;;;;;;78.37;44.23;;;7.90;99.90;;;;;;6214208;23;20374;-68
2024/01/04 08:08:28;;;;;;;86.57;46.03;;;8.00;99.90;;;;;;6211164;23;20071;-67
2024/01/04 08:10:54;;;;;;;78.43;43.83;;;7.90;99.90;;;;;;6214639;23;20001;-67
2024/01/04 08:13:19;;;;;;;83.70;44.80;;;7.90;99.90;;;;;;6214411;23;19997;-67
2024/01/04 08:15:45;;;;;;;78.40;45.70;;;7.90;99.90;;;;;;6214704;23;20008;-67
2024/01/04 08:18:11;;;;;;;84.30;45.37;;;7.90;99.90;;;;;;6214212;23;20331;-67
2024/01/04 08:20:37;;;;;;;74.30;44.00;;;7.90;99.90;;;;;;6214042;23;20003;-67
2024/01/04 08:23:03;;;;;;;84.43;44.63;;;7.90;99.90;;;;;;6214440;23;20502;-67
2024/01/04 08:25:28;;;;;;;79.23;42.87;;;8.00;99.90;;;;;;6212559;23;20414;-68
2024/01/04 08:27:55;;;;;;;81.80;43.23;;;8.00;99.90;;;;;;6212895;23;20010;-68
2024/01/04 08:30:21;;;;;;;90.13;45.93;;;8.00;99.90;;;;;;6211791;23;19997;-67
2024/01/04 08:32:47;;;;;;;87.30;44.20;;;8.00;99.90;;;;;;6211742;23;20005;-67
2024/01/04 08:35:13;;;;;;;78.30;42.30;;;8.00;99.90;;;;;;6212215;23;20016;-68
2024/01/04 08:37:38;;;;;;;76.07;40.67;;;8.00;99.90;;;;;;6212138;23;20017;-67
2024/01/04 08:40:05;;;;;;;73.20;41.90;;;8.00;99.90;;;;;;6212936;23;20007;-67
2024/01/04 08:42:31;;;;;;;74.93;40.97;;;8.00;99.90;;;;;;6213853;23;20366;-67
2024/01/04 08:44:58;;;;;;;76.63;41.23;;;8.00;99.90;;;;;;6216452;23;20039;-67
2024/01/04 08:47:24;;;;;;;73.80;39.53;;;8.00;99.90;;;;;;6216096;23;20072;-67
2024/01/04 08:49:49;;;;;;;68.70;39.13;;;8.10;99.90;;;;;;6215767;23;20035;-68
2024/01/04 08:52:15;;;;;;;81.90;41.37;;;8.10;99.90;;;;;;6216279;23;20004;-67
2024/01/04 08:54:42;;;;;;;73.57;41.33;;;8.10;99.90;;;;;;6234508;23;20431;-68
2024/01/04 08:57:08;;;;;;;79.27;43.43;;;8.10;99.90;;;;;;6245256;23;20000;-68
2024/01/04 08:59:34;;;;;;;78.93;42.83;;;8.10;99.90;;;;;;6246372;23;20016;-69
2024/01/04 09:01:59;;;;;;;78.07;41.77;;;8.10;99.90;;;;;;6246614;23;20008;-66
2024/01/04 09:04:25;;;;;;;83.73;46.20;;;8.00;99.90;;;;;;6219295;23;20381;-65
2024/01/04 09:06:51;;;;;;;86.63;45.20;;;8.00;99.90;;;;;;6246274;23;20027;-66
2024/01/04 09:09:17;;;;;;;81.27;45.93;;;8.00;99.90;;;;;;6246335;23;20074;-68
2024/01/04 09:11:48;;;;;;;82.00;45.60;;;8.10;99.90;;;;;;6244538;23;20063;-67
2024/01/04 09:14:14;;;;;;;84.40;44.27;;;8.10;99.90;;;;;;6243970;23;20083;-67
2024/01/04 09:16:43;;;;;;;82.73;43.30;;;8.10;99.90;;;;;;6245569;23;20004;-67
2024/01/04 09:19:16;;;;;;;82.23;44.80;;;8.20;99.90;;;;;;6246064;23;19996;-67
2024/01/04 09:21:42;;;;;;;77.50;42.60;;;8.20;99.90;;;;;;6219681;23;20497;-67
2024/01/04 09:24:08;;;;;;;76.47;41.13;;;8.20;99.90;;;;;;6246341;23;20075;-67
2024/01/04 09:26:42;;;;;;;75.47;40.73;;;8.20;99.90;;;;;;6246574;23;20035;-67
2024/01/04 09:29:08;;;;;;;76.57;42.33;;;8.20;99.90;;;;;;6246025;23;20011;-68
2024/01/04 09:31:34;;;;;;;79.93;42.23;;;8.30;99.90;;;;;;6245002;23;20004;-68
2024/01/04 09:34:00;;;;;;;70.03;39.53;;;8.30;99.90;;;;;;6244898;23;20000;-68
2024/01/04 09:36:26;;;;;;;73.13;39.97;;;8.30;99.90;;;;;;6244957;23;20019;-67
2024/01/04 09:38:52;;;;;;;75.73;41.47;;;8.30;99.90;;;;;;6244628;23;20358;-67
2024/01/04 09:41:30;;;;;;;79.83;40.93;;;8.30;99.90;;;;;;6244807;23;20001;-68
2024/01/04 09:44:00;;;;;;;78.83;41.47;;;8.30;99.90;;;;;;6244599;23;20529;-69
2024/01/04 09:46:32;;;;;;;73.73;39.03;;;8.20;99.90;;;;;;6243636;23;20050;-68
2024/01/04 09:49:01;;;;;;;74.13;40.40;;;8.30;99.90;;;;;;6244413;23;20077;-68
2024/01/04 09:51:34;;;;;;;77.23;40.80;;;8.20;99.90;;;;;;6244025;23;20004;-68
2024/01/04 09:54:04;;;;;;;74.87;40.77;;;8.20;99.90;;;;;;6245270;23;20023;-68
2024/01/04 09:56:32;;;;;;;79.07;40.43;;;8.20;99.90;;;;;;6245376;23;20004;-68
2024/01/04 09:59:01;;;;;;;71.93;39.67;;;8.20;99.90;;;;;;6246382;23;20004;-67
2024/01/04 10:01:31;;;;;;;77.17;42.10;;;8.20;99.90;;;;;;6246412;23;20094;-67
2024/01/04 10:04:06;;;;;;;77.60;41.63;;;8.20;99.90;;;;;;6244922;23;20004;-68
2024/01/04 10:06:33;;;;;;;76.50;42.77;;;8.30;99.90;;;;;;6244035;23;20497;-68
2024/01/04 10:09:25;;;;;;;77.50;40.13;;;8.30;99.90;;;;;;6244649;23;20004;-68
2024/01/04 10:12:05;;;;;;;72.00;39.33;;;8.30;99.90;;;;;;6244231;23;20000;-68
2024/01/04 10:14:32;;;;;;;75.80;38.77;;;8.40;99.90;;;;;;6245916;23;20004;-67
2024/01/04 10:17:01;;;;;;;69.60;38.57;;;8.40;99.90;;;;;;6246376;23;20035;-67
2024/01/04 10:19:29;;;;;;;71.17;39.10;;;8.40;99.90;;;;;;6246135;23;20482;-67
2024/01/04 10:22:06;;;;;;;72.90;38.43;;;8.40;99.90;;;;;;6246114;23;19996;-68
2024/01/04 10:24:41;;;;;;;76.33;38.77;;;8.40;99.90;;;;;;6245384;23;20003;-68
2024/01/04 10:27:08;;;;;;;74.63;40.33;;;8.40;99.90;;;;;;6245590;23;20004;-67
2024/01/04 10:29:36;;;;;;;71.63;39.37;;;8.50;99.90;;;;;;6245762;23;19996;-67
2024/01/04 10:32:11;;;;;;;72.77;38.83;;;8.50;99.90;;;;;;6245621;23;20000;-67
2024/01/04 10:34:38;;;;;;;68.17;37.83;;;8.50;99.90;;;;;;6245628;23;20004;-67
2024/01/04 10:37:13;;;;;;;72.43;38.77;;;8.50;99.90;;;;;;6245470;23;20004;-67
2024/01/04 10:39:41;;;;;;;73.23;38.37;;;8.50;99.90;;;;;;6243158;23;20004;-68
2024/01/04 10:42:09;;;;;;;71.57;38.73;;;8.50;99.90;;;;;;6244955;23;20000;-67
2024/01/04 10:44:35;;;;;;;64.53;37.27;;;8.50;99.90;;;;;;6245211;23;20026;-67
2024/01/04 10:47:02;;;;;;;70.33;38.23;;;8.60;99.90;;;;;;6245018;23;20365;-67
2024/01/04 10:49:28;;;;;;;72.13;38.47;;;8.60;99.90;;;;;;6218350;23;20431;-68
2024/01/04 10:51:58;;;;;;;71.53;37.47;;;8.60;99.90;;;;;;6245202;23;20059;-67
2024/01/04 10:54:34;;;;;;;68.73;36.10;;;8.60;99.90;;;;;;6244930;23;20434;-67
2024/01/04 10:57:02;;;;;;;69.00;38.53;;;8.60;99.90;;;;;;6245268;23;20431;-67
2024/01/04 10:59:29;;;;;;;70.67;39.03;;;8.60;99.90;;;;;;6245382;23;20040;-68
2024/01/04 11:01:58;;;;;;;67.07;36.63;;;8.60;99.90;;;;;;6245169;23;20004;-67
2024/01/04 11:04:24;;;;;;;66.83;37.20;;;8.60;99.90;;;;;;6218274;23;20010;-68
2024/01/04 11:06:52;;;;;;;67.13;37.40;;;8.60;99.90;;;;;;6244929;23;20000;-67
2024/01/04 11:09:19;;;;;;;67.37;37.03;;;8.60;99.90;;;;;;6245220;23;20000;-67
2024/01/04 11:11:45;;;;;;;66.27;37.27;;;8.70;99.90;;;;;;6245070;23;20079;-67
2024/01/04 11:14:11;;;;;;;62.13;35.63;;;8.70;99.90;;;;;;6243245;23;20000;-69
2024/01/04 11:16:43;;;;;;;74.50;36.77;;;8.70;99.90;;;;;;6244935;23;20015;-68
2024/01/04 11:19:52;;;;;;;66.25;36.83;;;8.70;99.90;;;;;;6244737;23;20322;-68
2024/01/04 11:22:49;;;;;;;64.43;36.03;;;8.70;99.90;;;;;;6244763;23;20015;-67
2024/01/04 11:25:38;;;;;;;65.43;35.13;;;8.70;99.90;;;;;;6244792;23;20319;-68
2024/01/04 11:28:08;;;;;;;63.17;34.40;;;8.70;99.90;;;;;;6244530;23;20007;-67
2024/01/04 11:30:33;;;;;;;60.37;34.57;;;8.70;99.90;;;;;;6244964;23;20004;-67
2024/01/04 11:32:59;;;;;;;68.20;35.83;;;8.70;99.90;;;;;;6244854;23;20027;-68
2024/01/04 11:35:25;;;;;;;67.43;36.20;;;8.70;99.90;;;;;;6244330;23;20038;-68
2024/01/04 11:37:52;;;;;;;67.40;36.90;;;8.70;99.90;;;;;;6244813;23;20012;-68
2024/01/04 11:40:29;;;;;;;68.17;36.43;;;8.70;99.90;;;;;;6244639;23;20023;-69
2024/01/04 11:42:56;;;;;;;67.40;37.33;;;8.70;99.90;;;;;;6244708;23;20006;-68
2024/01/04 11:45:23;;;;;;;64.07;36.43;;;8.80;99.90;;;;;;6245179;23;20083;-67
2024/01/04 11:47:52;;;;;;;68.03;37.37;;;8.80;99.90;;;;;;6244716;23;20004;-68
2024/01/04 11:50:28;;;;;;;68.07;37.13;;;8.80;99.90;;;;;;6244930;23;20438;-66
2024/01/04 11:55:28;;;;;;;62.22;35.97;;;8.80;99.90;;;;;;6213774;23;20024;-68
2024/01/04 11:58:08;;;;;;;66.77;35.93;;;8.90;99.90;;;;;;6214717;23;20028;-69
2024/01/04 12:00:38;;;;;;;62.27;35.43;;;8.90;99.90;;;;;;6214123;23;20001;-69
2024/01/04 12:03:15;;;;;;;68.63;37.03;;;8.90;99.90;;;;;;6211822;23;20007;-69
2024/01/04 12:05:54;;;;;;;68.80;37.60;;;8.90;99.90;;;;;;6214591;23;20001;-68
2024/01/04 12:08:29;;;;;;;64.80;36.43;;;8.90;99.90;;;;;;6215121;23;20011;-69
2024/01/04 12:10:58;;;;;;;63.47;36.27;;;8.90;99.90;;;;;;6212860;23;20000;-69
2024/01/04 12:13:24;;;;;;;65.33;36.23;;;9.00;99.90;;;;;;6213485;23;19996;-69
2024/01/04 12:15:53;;;;;;;60.83;35.40;;;9.00;99.90;;;;;;6214951;23;20331;-70
2024/01/04 12:18:21;;;;;;;67.10;38.43;;;9.00;99.90;;;;;;6215139;23;20000;-68
2024/01/04 12:20:47;;;;;;;60.10;35.47;;;9.10;99.90;;;;;;6212568;23;20144;-69
2024/01/04 12:23:13;;;;;;;60.20;33.00;;;9.20;99.90;;;;;;6184978;23;20013;-68
2024/01/04 12:25:40;;;;;;;59.83;33.97;;;9.30;99.90;;;;;;6214019;23;20005;-71
2024/01/04 12:28:07;;;;;;;58.43;33.83;;;9.40;99.90;;;;;;6189473;23;20427;-76
2024/01/04 12:30:35;;;;;;;55.53;32.30;;;9.40;99.90;;;;;;6215903;23;20023;-70
2024/01/04 12:33:01;;;;;;;57.17;32.40;;;9.50;99.90;;;;;;6216323;23;20024;-70
2024/01/04 12:35:27;;;;;;;58.73;34.53;;;9.50;99.90;;;;;;6216489;23;20099;-70